createdAt,value
2023-04-23T00:04:41.841Z,9.2
2023-04-23T00:19:41.558Z,9.1
2023-04-23T00:34:41.854Z,8.9
2023-04-23T00:49:41.587Z,8.8
2023-04-23T01:04:41.764Z,8.8
2023-04-23T01:19:41.586Z,8.9
2023-04-23T01:34:41.746Z,8.9
2023-04-23T01:49:41.587Z,8.8
2023-04-23T02:04:41.723Z,8.9
2023-04-23T02:19:41.550Z,9.1
2023-04-23T02:34:41.721Z,9.2
2023-04-23T02:49:41.602Z,9.4
2023-04-23T03:04:41.741Z,9.6
2023-04-23T03:19:41.594Z,9.8
2023-04-23T03:34:41.682Z,9.9
2023-04-23T03:49:41.585Z,9.9
2023-04-23T04:04:41.908Z,10.1
2023-04-23T04:19:41.583Z,10.2
2023-04-23T04:34:41.715Z,10.2
2023-04-23T04:49:41.574Z,10.4
2023-04-23T05:04:41.766Z,10.5
2023-04-23T05:19:41.608Z,10.6
2023-04-23T05:34:41.726Z,10.8
2023-04-23T05:49:41.532Z,10.7
2023-04-23T06:04:41.821Z,10.9
2023-04-23T06:19:41.575Z,11.3
2023-04-23T06:34:49.938Z,11.6
2023-04-23T06:49:41.542Z,11.8
2023-04-23T07:04:41.799Z,12.2
2023-04-23T07:19:41.565Z,12.4
2023-04-23T07:34:41.714Z,12.8
2023-04-23T07:49:41.767Z,13
2023-04-23T08:04:41.636Z,13.3
2023-04-23T08:19:41.693Z,13.8
2023-04-23T08:34:41.589Z,14.1
2023-04-23T08:49:41.674Z,14.6
2023-04-23T09:04:41.570Z,14.9
2023-04-23T09:19:41.771Z,15.2
2023-04-23T09:34:41.552Z,15.1
2023-04-23T09:49:41.755Z,15.8
2023-04-23T10:04:41.766Z,16.6
2023-04-23T10:19:41.651Z,16.6
2023-04-23T10:34:41.574Z,15.9
2023-04-23T10:49:41.710Z,15.8
2023-04-23T11:04:41.626Z,15.8
2023-04-23T11:19:41.732Z,16.4
2023-04-23T11:34:41.588Z,17
2023-04-23T11:49:41.712Z,17.1
2023-04-23T12:04:41.679Z,17.8
2023-04-23T12:19:41.758Z,17.9
2023-04-23T12:34:41.736Z,17.7
2023-04-23T12:49:41.729Z,17.6
2023-04-23T13:04:41.586Z,17.8
2023-04-23T13:19:41.723Z,17
2023-04-23T13:34:41.579Z,16.2
2023-04-23T13:49:41.837Z,15
2023-04-23T14:04:41.621Z,13.3
2023-04-23T14:19:41.685Z,13.9
2023-04-23T14:34:41.602Z,13.6
2023-04-23T14:49:41.801Z,13.6
2023-04-23T15:04:41.609Z,13.7
2023-04-23T15:19:41.759Z,13.8
2023-04-23T15:34:41.562Z,14.2
2023-04-23T15:49:41.927Z,14.4
2023-04-23T16:04:41.679Z,14
2023-04-23T16:19:41.760Z,13.5
2023-04-23T16:34:41.724Z,13.5
2023-04-23T16:49:41.608Z,13.4
2023-04-23T17:04:41.856Z,13.4
2023-04-23T17:19:41.576Z,13.2
2023-04-23T17:34:41.752Z,13.3
2023-04-23T17:49:41.817Z,13.2
2023-04-23T18:04:41.563Z,13.2
2023-04-23T18:19:41.820Z,13
2023-04-23T18:34:41.552Z,12.7
2023-04-23T18:49:41.708Z,12.1
2023-04-23T19:04:41.659Z,11.8
2023-04-23T19:19:41.654Z,11.6
2023-04-23T19:34:41.598Z,10.9
2023-04-23T19:49:41.771Z,10.9
2023-04-23T20:04:41.634Z,11
2023-04-23T20:19:41.760Z,10.9
2023-04-23T20:34:41.596Z,10.6
2023-04-23T20:49:41.780Z,10.3
2023-04-23T21:04:41.734Z,10.2
2023-04-23T21:19:41.740Z,10.4
2023-04-23T21:34:41.577Z,10.3
2023-04-23T21:49:41.733Z,10.1
2023-04-23T22:04:41.561Z,9.9
2023-04-23T22:19:41.693Z,9.8
2023-04-23T22:34:41.574Z,9.7
2023-04-23T22:49:41.695Z,9.6
2023-04-23T23:04:41.599Z,9.4
2023-04-23T23:19:41.805Z,9.2
2023-04-23T23:34:41.549Z,8.9
2023-04-23T23:49:41.864Z,8.8
